sensor_id;sensor_type;location;lat;lon;timestamp;pressure;altitude;pressure_sealevel;temperature;humidity
80414;BME280;69758;52.580;13.068;2024-02-16T00:01:38;101345.24;;;17.70;35.46
80414;BME280;69758;52.580;13.068;2024-02-16T00:04:03;101337.56;;;17.88;35.46
80414;BME280;69758;52.580;13.068;2024-02-16T00:06:29;101334.62;;;17.80;35.53
80414;BME280;69758;52.580;13.068;2024-02-16T00:08:54;101337.44;;;17.53;35.54
80414;BME280;69758;52.580;13.068;2024-02-16T00:11:20;101339.34;;;17.48;35.53
80414;BME280;69758;52.580;13.068;2024-02-16T00:13:45;101339.98;;;17.46;35.58
80414;BME280;69758;52.580;13.068;2024-02-16T00:16:10;101344.53;;;17.43;35.59
80414;BME280;69758;52.580;13.068;2024-02-16T00:18:36;101346.85;;;17.63;35.62
80414;BME280;69758;52.580;13.068;2024-02-16T00:21:02;101345.40;;;17.35;35.59
80414;BME280;69758;52.580;13.068;2024-02-16T00:23:26;101345.92;;;17.34;35.53
80414;BME280;69758;52.580;13.068;2024-02-16T00:25:51;101346.31;;;17.32;35.48
80414;BME280;69758;52.580;13.068;2024-02-16T00:28:17;101344.43;;;17.26;35.52
80414;BME280;69758;52.580;13.068;2024-02-16T00:30:42;101347.61;;;17.23;35.55
80414;BME280;69758;52.580;13.068;2024-02-16T00:33:07;101348.74;;;17.46;35.57
80414;BME280;69758;52.580;13.068;2024-02-16T00:35:32;101347.70;;;17.15;35.65
80414;BME280;69758;52.580;13.068;2024-02-16T00:37:58;101347.47;;;17.61;35.67
80414;BME280;69758;52.580;13.068;2024-02-16T00:40:23;101344.25;;;17.32;35.70
80414;BME280;69758;52.580;13.068;2024-02-16T00:42:49;101342.85;;;17.23;35.79
80414;BME280;69758;52.580;13.068;2024-02-16T00:45:14;101340.89;;;17.20;35.79
80414;BME280;69758;52.580;13.068;2024-02-16T00:47:40;101332.75;;;17.23;35.75
80414;BME280;69758;52.580;13.068;2024-02-16T00:50:06;101328.16;;;17.21;35.75
80414;BME280;69758;52.580;13.068;2024-02-16T00:52:31;101329.97;;;17.16;35.78
80414;BME280;69758;52.580;13.068;2024-02-16T00:54:56;101326.47;;;17.37;35.79
80414;BME280;69758;52.580;13.068;2024-02-16T00:57:21;101325.92;;;17.37;35.71
80414;BME280;69758;52.580;13.068;2024-02-16T00:59:46;101325.19;;;16.86;35.71
80414;BME280;69758;52.580;13.068;2024-02-16T01:02:12;101326.55;;;17.31;35.72
80414;BME280;69758;52.580;13.068;2024-02-16T01:04:37;101328.13;;;17.07;35.68
80414;BME280;69758;52.580;13.068;2024-02-16T01:07:02;101325.88;;;17.28;35.67
80414;BME280;69758;52.580;13.068;2024-02-16T01:09:27;101326.13;;;17.24;35.72
80414;BME280;69758;52.580;13.068;2024-02-16T01:11:53;101324.65;;;17.23;35.68
80414;BME280;69758;52.580;13.068;2024-02-16T01:14:18;101321.71;;;16.95;35.71
80414;BME280;69758;52.580;13.068;2024-02-16T01:16:44;101321.34;;;16.91;35.74
80414;BME280;69758;52.580;13.068;2024-02-16T01:19:09;101318.32;;;17.12;35.71
80414;BME280;69758;52.580;13.068;2024-02-16T01:21:34;101318.22;;;17.09;35.75
80414;BME280;69758;52.580;13.068;2024-02-16T01:24:00;101318.20;;;17.05;35.79
80414;BME280;69758;52.580;13.068;2024-02-16T01:26:25;101312.00;;;17.01;35.82
80414;BME280;69758;52.580;13.068;2024-02-16T01:28:50;101303.72;;;17.02;35.80
80414;BME280;69758;52.580;13.068;2024-02-16T01:31:16;101299.97;;;16.98;35.83
80414;BME280;69758;52.580;13.068;2024-02-16T01:33:41;101297.10;;;17.05;35.72
80414;BME280;69758;52.580;13.068;2024-02-16T01:36:07;101294.04;;;16.78;35.73
80414;BME280;69758;52.580;13.068;2024-02-16T01:38:32;101289.66;;;16.99;35.76
80414;BME280;69758;52.580;13.068;2024-02-16T01:40:57;101289.42;;;16.72;35.81
80414;BME280;69758;52.580;13.068;2024-02-16T01:43:23;101287.50;;;16.91;35.86
80414;BME280;69758;52.580;13.068;2024-02-16T01:45:48;101290.62;;;16.64;35.90
80414;BME280;69758;52.580;13.068;2024-02-16T01:48:14;101283.42;;;16.64;35.88
80414;BME280;69758;52.580;13.068;2024-02-16T01:50:39;101277.34;;;16.62;35.89
80414;BME280;69758;52.580;13.068;2024-02-16T01:53:04;101270.09;;;16.83;35.93
80414;BME280;69758;52.580;13.068;2024-02-16T01:55:29;101257.91;;;16.73;36.05
80414;BME280;69758;52.580;13.068;2024-02-16T01:57:55;101253.73;;;16.63;36.22
80414;BME280;69758;52.580;13.068;2024-02-16T02:00:20;101249.27;;;16.59;36.29
80414;BME280;69758;52.580;13.068;2024-02-16T02:02:46;101249.40;;;16.59;36.28
80414;BME280;69758;52.580;13.068;2024-02-16T02:05:10;101249.22;;;16.46;36.39
80414;BME280;69758;52.580;13.068;2024-02-16T02:07:36;101246.31;;;16.35;36.57
80414;BME280;69758;52.580;13.068;2024-02-16T02:10:02;101243.01;;;16.25;36.67
80414;BME280;69758;52.580;13.068;2024-02-16T02:12:28;101239.83;;;16.72;36.72
80414;BME280;69758;52.580;13.068;2024-02-16T02:14:54;101235.11;;;16.26;36.70
80414;BME280;69758;52.580;13.068;2024-02-16T02:17:19;101230.23;;;16.32;36.60
80414;BME280;69758;52.580;13.068;2024-02-16T02:19:45;101234.59;;;16.25;36.68
80414;BME280;69758;52.580;13.068;2024-02-16T02:22:14;101233.99;;;16.27;36.63
80414;BME280;69758;52.580;13.068;2024-02-16T02:24:35;101235.21;;;15.76;36.66
80414;BME280;69758;52.580;13.068;2024-02-16T02:27:01;101230.10;;;16.37;36.49
80414;BME280;69758;52.580;13.068;2024-02-16T02:29:26;101227.53;;;16.49;36.28
80414;BME280;69758;52.580;13.068;2024-02-16T02:31:51;101226.57;;;16.47;36.30
80414;BME280;69758;52.580;13.068;2024-02-16T02:34:17;101221.68;;;16.74;36.23
80414;BME280;69758;52.580;13.068;2024-02-16T02:36:43;101220.52;;;16.47;36.21
80414;BME280;69758;52.580;13.068;2024-02-16T02:39:08;101223.02;;;16.43;36.25
80414;BME280;69758;52.580;13.068;2024-02-16T02:41:34;101224.14;;;16.40;36.25
80414;BME280;69758;52.580;13.068;2024-02-16T02:43:59;101220.49;;;16.47;36.15
80414;BME280;69758;52.580;13.068;2024-02-16T02:46:25;101224.81;;;16.47;36.13
80414;BME280;69758;52.580;13.068;2024-02-16T02:48:50;101225.36;;;16.47;36.05
80414;BME280;69758;52.580;13.068;2024-02-16T02:51:16;101232.25;;;16.47;36.08
80414;BME280;69758;52.580;13.068;2024-02-16T02:53:42;101231.14;;;16.46;36.02
80414;BME280;69758;52.580;13.068;2024-02-16T02:56:07;101234.96;;;16.37;36.11
80414;BME280;69758;52.580;13.068;2024-02-16T02:58:32;101234.49;;;16.42;36.04
80414;BME280;69758;52.580;13.068;2024-02-16T03:00:57;101228.49;;;16.43;36.01
80414;BME280;69758;52.580;13.068;2024-02-16T03:03:23;101225.58;;;16.44;35.97
80414;BME280;69758;52.580;13.068;2024-02-16T03:05:50;101218.53;;;16.45;35.91
80414;BME280;69758;52.580;13.068;2024-02-16T03:08:14;101213.31;;;16.45;35.82
80414;BME280;69758;52.580;13.068;2024-02-16T03:10:39;101210.71;;;16.57;36.01
80414;BME280;69758;52.580;13.068;2024-02-16T03:13:05;101209.33;;;16.26;36.10
80414;BME280;69758;52.580;13.068;2024-02-16T03:15:30;101206.12;;;16.28;36.06
80414;BME280;69758;52.580;13.068;2024-02-16T03:17:55;101198.72;;;16.33;35.99
80414;BME280;69758;52.580;13.068;2024-02-16T03:20:26;101199.04;;;16.30;35.99
80414;BME280;69758;52.580;13.068;2024-02-16T03:22:46;101199.48;;;16.27;36.01
80414;BME280;69758;52.580;13.068;2024-02-16T03:25:11;101201.24;;;16.26;35.96
80414;BME280;69758;52.580;13.068;2024-02-16T03:27:36;101202.75;;;15.97;35.99
80414;BME280;69758;52.580;13.068;2024-02-16T03:30:02;101204.13;;;16.21;35.96
80414;BME280;69758;52.580;13.068;2024-02-16T03:32:28;101205.66;;;16.20;36.01
80414;BME280;69758;52.580;13.068;2024-02-16T03:34:53;101207.10;;;16.25;35.92
80414;BME280;69758;52.580;13.068;2024-02-16T03:37:18;101201.94;;;16.52;35.82
80414;BME280;69758;52.580;13.068;2024-02-16T03:39:43;101201.32;;;16.24;35.80
80414;BME280;69758;52.580;13.068;2024-02-16T03:42:09;101194.78;;;16.23;35.86
80414;BME280;69758;52.580;13.068;2024-02-16T03:44:34;101183.87;;;15.96;35.80
80414;BME280;69758;52.580;13.068;2024-02-16T03:46:59;101187.43;;;16.21;35.77
80414;BME280;69758;52.580;13.068;2024-02-16T03:49:25;101185.32;;;16.46;35.75
80414;BME280;69758;52.580;13.068;2024-02-16T03:51:49;101181.27;;;16.19;35.76
80414;BME280;69758;52.580;13.068;2024-02-16T03:54:15;101185.78;;;16.15;35.77
80414;BME280;69758;52.580;13.068;2024-02-16T03:56:40;101185.39;;;15.67;35.79
80414;BME280;69758;52.580;13.068;2024-02-16T03:59:06;101182.80;;;16.49;35.87
80414;BME280;69758;52.580;13.068;2024-02-16T04:01:31;101183.08;;;15.90;36.11
80414;BME280;69758;52.580;13.068;2024-02-16T04:03:56;101184.19;;;16.28;35.96
80414;BME280;69758;52.580;13.068;2024-02-16T04:06:21;101176.41;;;16.07;35.88
80414;BME280;69758;52.580;13.068;2024-02-16T04:08:47;101171.03;;;16.07;35.88
80414;BME280;69758;52.580;13.068;2024-02-16T04:11:12;101168.56;;;16.04;35.90
80414;BME280;69758;52.580;13.068;2024-02-16T04:13:37;101170.68;;;15.95;36.06
80414;BME280;69758;52.580;13.068;2024-02-16T04:16:02;101165.71;;;16.06;35.95
80414;BME280;69758;52.580;13.068;2024-02-16T04:18:28;101157.14;;;16.13;35.81
80414;BME280;69758;52.580;13.068;2024-02-16T04:20:53;101156.72;;;15.91;36.04
80414;BME280;69758;52.580;13.068;2024-02-16T04:23:19;101155.93;;;16.29;36.25
80414;BME280;69758;52.580;13.068;2024-02-16T04:25:44;101160.55;;;16.32;36.23
80414;BME280;69758;52.580;13.068;2024-02-16T04:28:10;101165.57;;;15.85;36.25
80414;BME280;69758;52.580;13.068;2024-02-16T04:30:35;101168.46;;;16.14;36.17
80414;BME280;69758;52.580;13.068;2024-02-16T04:33:01;101158.12;;;15.86;36.21
80414;BME280;69758;52.580;13.068;2024-02-16T04:35:26;101151.56;;;16.04;36.28
80414;BME280;69758;52.580;13.068;2024-02-16T04:37:52;101148.69;;;16.15;36.38
80414;BME280;69758;52.580;13.068;2024-02-16T04:40:18;101149.86;;;15.99;36.31
80414;BME280;69758;52.580;13.068;2024-02-16T04:42:43;101152.76;;;16.18;36.37
80414;BME280;69758;52.580;13.068;2024-02-16T04:45:11;101143.68;;;15.68;36.39
80414;BME280;69758;52.580;13.068;2024-02-16T04:47:33;101145.29;;;15.80;36.22
80414;BME280;69758;52.580;13.068;2024-02-16T04:49:58;101140.09;;;15.95;36.01
80414;BME280;69758;52.580;13.068;2024-02-16T04:52:23;101143.18;;;16.07;36.06
80414;BME280;69758;52.580;13.068;2024-02-16T04:54:48;101147.82;;;16.17;35.92
80414;BME280;69758;52.580;13.068;2024-02-16T04:57:14;101149.27;;;15.86;35.96
80414;BME280;69758;52.580;13.068;2024-02-16T04:59:39;101152.84;;;15.92;35.89
80414;BME280;69758;52.580;13.068;2024-02-16T05:02:05;101163.14;;;16.00;35.76
80414;BME280;69758;52.580;13.068;2024-02-16T05:04:30;101157.65;;;16.06;35.66
80414;BME280;69758;52.580;13.068;2024-02-16T05:06:55;101153.23;;;16.11;35.55
80414;BME280;69758;52.580;13.068;2024-02-16T05:09:20;101151.06;;;16.15;35.47
80414;BME280;69758;52.580;13.068;2024-02-16T05:11:45;101144.82;;;15.89;35.45
80414;BME280;69758;52.580;13.068;2024-02-16T05:14:11;101134.19;;;16.40;35.33
80414;BME280;69758;52.580;13.068;2024-02-16T05:16:36;101124.11;;;15.83;35.42
80414;BME280;69758;52.580;13.068;2024-02-16T05:19:02;101126.71;;;16.11;35.32
80414;BME280;69758;52.580;13.068;2024-02-16T05:21:27;101126.16;;;16.00;35.46
80414;BME280;69758;52.580;13.068;2024-02-16T05:23:52;101123.35;;;16.03;35.43
80414;BME280;69758;52.580;13.068;2024-02-16T05:26:18;101124.57;;;16.37;35.25
80414;BME280;69758;52.580;13.068;2024-02-16T05:28:44;101124.25;;;16.02;35.38
80414;BME280;69758;52.580;13.068;2024-02-16T05:31:14;101124.14;;;15.96;35.46
80414;BME280;69758;52.580;13.068;2024-02-16T05:33:35;101123.97;;;15.99;35.46
80414;BME280;69758;52.580;13.068;2024-02-16T05:36:00;101122.11;;;16.03;35.37
80414;BME280;69758;52.580;13.068;2024-02-16T05:38:25;101123.48;;;16.05;35.35
80414;BME280;69758;52.580;13.068;2024-02-16T05:40:50;101124.31;;;16.06;35.31
80414;BME280;69758;52.580;13.068;2024-02-16T05:43:15;101115.30;;;16.01;35.36
80414;BME280;69758;52.580;13.068;2024-02-16T05:45:41;101110.47;;;16.03;35.32
80414;BME280;69758;52.580;13.068;2024-02-16T05:48:07;101105.43;;;16.00;35.36
80414;BME280;69758;52.580;13.068;2024-02-16T05:50:32;101097.33;;;15.95;35.38
80414;BME280;69758;52.580;13.068;2024-02-16T05:52:57;101093.48;;;15.87;35.49
80414;BME280;69758;52.580;13.068;2024-02-16T05:55:22;101101.60;;;15.74;35.66
80414;BME280;69758;52.580;13.068;2024-02-16T05:57:47;101103.92;;;15.75;35.66
80414;BME280;69758;52.580;13.068;2024-02-16T06:00:14;101101.52;;;15.80;35.62
80414;BME280;69758;52.580;13.068;2024-02-16T06:02:38;101101.33;;;15.86;35.55
80414;BME280;69758;52.580;13.068;2024-02-16T06:05:04;101105.38;;;15.90;35.47
80414;BME280;69758;52.580;13.068;2024-02-16T06:07:29;101118.92;;;15.89;35.46
80414;BME280;69758;52.580;13.068;2024-02-16T06:09:54;101126.98;;;15.89;35.44
80414;BME280;69758;52.580;13.068;2024-02-16T06:12:19;101122.04;;;15.94;35.37
80414;BME280;69758;52.580;13.068;2024-02-16T06:14:44;101117.90;;;15.73;35.28
80414;BME280;69758;52.580;13.068;2024-02-16T06:17:09;101112.97;;;16.04;35.10
80414;BME280;69758;52.580;13.068;2024-02-16T06:19:35;101111.65;;;15.79;35.06
80414;BME280;69758;52.580;13.068;2024-02-16T06:22:00;101106.21;;;16.00;35.03
80414;BME280;69758;52.580;13.068;2024-02-16T06:24:25;101103.89;;;15.97;35.05
80414;BME280;69758;52.580;13.068;2024-02-16T06:26:51;101098.05;;;15.95;35.04
80414;BME280;69758;52.580;13.068;2024-02-16T06:29:17;101102.20;;;15.94;34.98
80414;BME280;69758;52.580;13.068;2024-02-16T06:31:43;101109.14;;;15.89;35.05
80414;BME280;69758;52.580;13.068;2024-02-16T06:34:08;101112.51;;;15.85;35.10
80414;BME280;69758;52.580;13.068;2024-02-16T06:36:34;101112.71;;;16.01;35.19
80414;BME280;69758;52.580;13.068;2024-02-16T06:38:59;101117.12;;;15.72;35.24
80414;BME280;69758;52.580;13.068;2024-02-16T06:41:25;101114.41;;;15.98;35.21
80414;BME280;69758;52.580;13.068;2024-02-16T06:43:50;101112.53;;;15.97;35.23
80414;BME280;69758;52.580;13.068;2024-02-16T06:46:15;101113.77;;;15.89;35.38
80414;BME280;69758;52.580;13.068;2024-02-16T06:48:41;101112.92;;;15.61;35.45
80414;BME280;69758;52.580;13.068;2024-02-16T06:51:07;101109.42;;;15.93;35.40
80414;BME280;69758;52.580;13.068;2024-02-16T06:53:33;101105.98;;;15.77;35.29
80414;BME280;69758;52.580;13.068;2024-02-16T06:55:58;101105.41;;;15.78;35.30
80414;BME280;69758;52.580;13.068;2024-02-16T06:58:23;101108.51;;;16.02;35.33
80414;BME280;69758;52.580;13.068;2024-02-16T07:00:49;101108.15;;;15.63;35.51
80414;BME280;69758;52.580;13.068;2024-02-16T07:03:15;101107.47;;;15.56;35.67
80414;BME280;69758;52.580;13.068;2024-02-16T07:05:40;101105.53;;;15.50;35.81
80414;BME280;69758;52.580;13.068;2024-02-16T07:08:06;101107.84;;;15.77;35.84
80414;BME280;69758;52.580;13.068;2024-02-16T07:10:32;101106.21;;;15.79;35.85
80414;BME280;69758;52.580;13.068;2024-02-16T07:12:56;101100.17;;;15.61;35.82
80414;BME280;69758;52.580;13.068;2024-02-16T07:15:22;101094.93;;;15.70;35.77
80414;BME280;69758;52.580;13.068;2024-02-16T07:17:48;101090.55;;;15.70;35.79
80414;BME280;69758;52.580;13.068;2024-02-16T07:20:14;101089.42;;;15.64;35.94
80414;BME280;69758;52.580;13.068;2024-02-16T07:22:38;101085.81;;;15.64;35.97
80414;BME280;69758;52.580;13.068;2024-02-16T07:25:04;101089.45;;;15.96;36.19
80414;BME280;69758;52.580;13.068;2024-02-16T07:27:29;101094.95;;;15.90;36.34
80414;BME280;69758;52.580;13.068;2024-02-16T07:29:55;101099.50;;;15.44;36.31
80414;BME280;69758;52.580;13.068;2024-02-16T07:32:20;101103.72;;;15.55;36.25
80414;BME280;69758;52.580;13.068;2024-02-16T07:34:45;101101.12;;;15.55;36.28
80414;BME280;69758;52.580;13.068;2024-02-16T07:37:11;101101.90;;;15.67;36.19
80414;BME280;69758;52.580;13.068;2024-02-16T07:39:36;101101.25;;;15.97;36.07
80414;BME280;69758;52.580;13.068;2024-02-16T07:42:01;101099.15;;;15.71;36.19
80414;BME280;69758;52.580;13.068;2024-02-16T07:44:27;101098.57;;;15.82;36.11
80414;BME280;69758;52.580;13.068;2024-02-16T07:46:52;101101.04;;;15.87;36.10
80414;BME280;69758;52.580;13.068;2024-02-16T07:49:17;101107.91;;;16.07;36.18
80414;BME280;69758;52.580;13.068;2024-02-16T07:51:43;101107.02;;;15.90;36.18
80414;BME280;69758;52.580;13.068;2024-02-16T07:54:09;101110.49;;;16.01;36.06
80414;BME280;69758;52.580;13.068;2024-02-16T07:56:34;101109.41;;;15.62;36.01
80414;BME280;69758;52.580;13.068;2024-02-16T07:58:59;101107.78;;;16.19;35.93
80414;BME280;69758;52.580;13.068;2024-02-16T08:01:25;101111.02;;;16.16;36.03
80414;BME280;69758;52.580;13.068;2024-02-16T08:03:50;101114.54;;;16.01;35.97
80414;BME280;69758;52.580;13.068;2024-02-16T08:06:15;101114.23;;;16.28;35.95
80414;BME280;69758;52.580;13.068;2024-02-16T08:08:40;101116.99;;;16.24;36.04
80414;BME280;69758;52.580;13.068;2024-02-16T08:11:06;101116.86;;;16.07;35.99
80414;BME280;69758;52.580;13.068;2024-02-16T08:13:31;101116.33;;;16.44;35.82
80414;BME280;69758;52.580;13.068;2024-02-16T08:15:56;101117.64;;;16.29;35.98
80414;BME280;69758;52.580;13.068;2024-02-16T08:18:22;101112.62;;;16.36;35.87
80414;BME280;69758;52.580;13.068;2024-02-16T08:20:48;101109.40;;;16.29;35.67
80414;BME280;69758;52.580;13.068;2024-02-16T08:23:13;101105.98;;;16.24;35.75
80414;BME280;69758;52.580;13.068;2024-02-16T08:25:38;101104.79;;;16.22;35.76
80414;BME280;69758;52.580;13.068;2024-02-16T08:28:04;101105.51;;;16.58;35.65
80414;BME280;69758;52.580;13.068;2024-02-16T08:30:29;101100.84;;;16.63;35.62
80414;BME280;69758;52.580;13.068;2024-02-16T08:32:54;101098.00;;;16.45;35.58
80414;BME280;69758;52.580;13.068;2024-02-16T08:35:19;101092.65;;;16.84;35.43
80414;BME280;69758;52.580;13.068;2024-02-16T08:37:45;101094.28;;;16.33;35.65
80414;BME280;69758;52.580;13.068;2024-02-16T08:40:12;101096.30;;;16.45;35.64
80414;BME280;69758;52.580;13.068;2024-02-16T08:42:35;101096.00;;;16.33;35.49
80414;BME280;69758;52.580;13.068;2024-02-16T08:45:00;101096.80;;;16.93;35.32
80414;BME280;69758;52.580;13.068;2024-02-16T08:47:26;101088.77;;;16.83;35.51
80414;BME280;69758;52.580;13.068;2024-02-16T08:49:51;101082.15;;;16.48;35.50
80414;BME280;69758;52.580;13.068;2024-02-16T08:52:16;101082.38;;;16.85;35.50
80414;BME280;69758;52.580;13.068;2024-02-16T08:54:43;101085.69;;;16.69;35.47
80414;BME280;69758;52.580;13.068;2024-02-16T08:57:07;101085.61;;;16.99;35.36
80414;BME280;69758;52.580;13.068;2024-02-16T08:59:33;101089.12;;;17.01;35.36
80414;BME280;69758;52.580;13.068;2024-02-16T09:01:58;101083.49;;;16.84;35.38
80414;BME280;69758;52.580;13.068;2024-02-16T09:04:23;101084.83;;;17.01;35.36
80414;BME280;69758;52.580;13.068;2024-02-16T09:06:48;101084.94;;;17.33;35.30
80414;BME280;69758;52.580;13.068;2024-02-16T09:09:14;101083.08;;;17.16;35.41
80414;BME280;69758;52.580;13.068;2024-02-16T09:11:38;101078.87;;;17.26;35.42
80414;BME280;69758;52.580;13.068;2024-02-16T09:14:04;101081.99;;;17.33;35.33
80414;BME280;69758;52.580;13.068;2024-02-16T09:16:29;101080.38;;;17.55;35.01
80414;BME280;69758;52.580;13.068;2024-02-16T09:18:54;101083.91;;;17.11;35.28
80414;BME280;69758;52.580;13.068;2024-02-16T09:21:20;101083.96;;;17.27;34.86
80414;BME280;69758;52.580;13.068;2024-02-16T09:23:45;101084.08;;;17.24;34.54
80414;BME280;69758;52.580;13.068;2024-02-16T09:26:10;101086.62;;;17.56;34.61
80414;BME280;69758;52.580;13.068;2024-02-16T09:28:39;101079.92;;;17.16;34.61
80414;BME280;69758;52.580;13.068;2024-02-16T09:31:02;101078.81;;;17.50;34.64
80414;BME280;69758;52.580;13.068;2024-02-16T09:33:26;101081.17;;;17.44;34.40
80414;BME280;69758;52.580;13.068;2024-02-16T09:35:51;101084.31;;;17.86;34.16
80414;BME280;69758;52.580;13.068;2024-02-16T09:38:17;101085.41;;;17.94;34.06
80414;BME280;69758;52.580;13.068;2024-02-16T09:40:42;101085.65;;;17.74;34.08
80414;BME280;69758;52.580;13.068;2024-02-16T09:43:07;101076.17;;;18.30;33.83
80414;BME280;69758;52.580;13.068;2024-02-16T09:45:33;101083.08;;;18.13;33.75
80414;BME280;69758;52.580;13.068;2024-02-16T09:47:58;101083.56;;;18.36;33.80
80414;BME280;69758;52.580;13.068;2024-02-16T09:50:23;101083.43;;;18.18;33.74
80414;BME280;69758;52.580;13.068;2024-02-16T09:52:49;101085.53;;;17.94;33.63
80414;BME280;69758;52.580;13.068;2024-02-16T09:55:14;101085.63;;;18.05;33.52
80414;BME280;69758;52.580;13.068;2024-02-16T09:57:39;101089.88;;;17.85;33.50
80414;BME280;69758;52.580;13.068;2024-02-16T10:00:05;101087.88;;;18.02;33.27
80414;BME280;69758;52.580;13.068;2024-02-16T10:02:39;101087.73;;;18.07;33.46
80414;BME280;69758;52.580;13.068;2024-02-16T10:04:54;101085.86;;;18.71;33.08
80414;BME280;69758;52.580;13.068;2024-02-16T10:09:45;101094.80;;;18.22;32.94
80414;BME280;69758;52.580;13.068;2024-02-16T10:12:10;101091.23;;;17.89;33.04
80414;BME280;69758;52.580;13.068;2024-02-16T10:14:36;101087.51;;;17.94;32.90
80414;BME280;69758;52.580;13.068;2024-02-16T10:17:03;101085.51;;;18.33;32.66
80414;BME280;69758;52.580;13.068;2024-02-16T10:19:27;101089.76;;;18.68;32.58
80414;BME280;69758;52.580;13.068;2024-02-16T10:21:53;101088.21;;;18.50;32.67
80414;BME280;69758;52.580;13.068;2024-02-16T10:24:21;101085.66;;;18.61;32.55
80414;BME280;69758;52.580;13.068;2024-02-16T10:26:43;101091.23;;;18.64;32.18
80414;BME280;69758;52.580;13.068;2024-02-16T10:29:10;101092.55;;;18.62;32.45
80414;BME280;69758;52.580;13.068;2024-02-16T10:31:34;101091.69;;;18.69;32.45
80414;BME280;69758;52.580;13.068;2024-02-16T10:34:00;101089.60;;;18.61;32.40
80414;BME280;69758;52.580;13.068;2024-02-16T10:36:25;101087.89;;;18.70;32.40
80414;BME280;69758;52.580;13.068;2024-02-16T10:38:49;101085.72;;;18.83;32.27
80414;BME280;69758;52.580;13.068;2024-02-16T10:41:16;101080.39;;;18.90;32.14
80414;BME280;69758;52.580;13.068;2024-02-16T10:43:40;101083.06;;;18.71;32.13
80414;BME280;69758;52.580;13.068;2024-02-16T10:46:05;101080.24;;;18.89;31.90
80414;BME280;69758;52.580;13.068;2024-02-16T10:48:30;101076.86;;;18.95;31.96
80414;BME280;69758;52.580;13.068;2024-02-16T10:50:56;101077.48;;;18.92;31.96
80414;BME280;69758;52.580;13.068;2024-02-16T10:53:24;101075.10;;;18.93;31.93
80414;BME280;69758;52.580;13.068;2024-02-16T10:55:46;101075.51;;;18.88;31.95
80414;BME280;69758;52.580;13.068;2024-02-16T10:58:12;101073.69;;;18.98;31.95
80414;BME280;69758;52.580;13.068;2024-02-16T11:00:51;101073.56;;;18.45;32.19
80414;BME280;69758;52.580;13.068;2024-02-16T11:03:04;101069.20;;;18.89;32.18
80414;BME280;69758;52.580;13.068;2024-02-16T11:05:34;101068.64;;;18.71;32.25
80414;BME280;69758;52.580;13.068;2024-02-16T11:07:59;101068.80;;;18.84;32.16
80414;BME280;69758;52.580;13.068;2024-02-16T11:10:18;101070.39;;;18.99;32.15
80414;BME280;69758;52.580;13.068;2024-02-16T11:12:44;101070.44;;;18.90;32.24
80414;BME280;69758;52.580;13.068;2024-02-16T11:15:08;101065.44;;;19.03;32.25
80414;BME280;69758;52.580;13.068;2024-02-16T11:17:35;101064.15;;;19.13;32.18
80414;BME280;69758;52.580;13.068;2024-02-16T11:20:00;101057.38;;;18.96;31.94
80414;BME280;69758;52.580;13.068;2024-02-16T11:22:27;101063.28;;;19.31;32.08
80414;BME280;69758;52.580;13.068;2024-02-16T11:24:53;101060.96;;;19.42;31.89
80414;BME280;69758;52.580;13.068;2024-02-16T11:27:16;101060.45;;;19.51;31.76
80414;BME280;69758;52.580;13.068;2024-02-16T11:29:41;101058.90;;;19.06;31.87
80414;BME280;69758;52.580;13.068;2024-02-16T11:32:06;101060.37;;;19.29;31.68
80414;BME280;69758;52.580;13.068;2024-02-16T11:34:31;101058.85;;;19.54;31.61
80414;BME280;69758;52.580;13.068;2024-02-16T11:36:56;101058.84;;;19.31;31.61
80414;BME280;69758;52.580;13.068;2024-02-16T11:39:22;101061.44;;;19.65;31.28
80414;BME280;69758;52.580;13.068;2024-02-16T11:41:47;101060.60;;;19.54;31.31
80414;BME280;69758;52.580;13.068;2024-02-16T11:44:13;101060.37;;;19.77;31.33
80414;BME280;69758;52.580;13.068;2024-02-16T11:46:38;101060.78;;;19.01;31.25
80414;BME280;69758;52.580;13.068;2024-02-16T11:49:05;101065.28;;;19.42;31.34
80414;BME280;69758;52.580;13.068;2024-02-16T11:51:28;101060.88;;;19.49;31.41
80414;BME280;69758;52.580;13.068;2024-02-16T11:53:55;101062.19;;;19.50;31.66
80414;BME280;69758;52.580;13.068;2024-02-16T11:56:23;101057.21;;;19.95;31.61
80414;BME280;69758;52.580;13.068;2024-02-16T11:58:45;101055.99;;;19.60;31.64
80414;BME280;69758;52.580;13.068;2024-02-16T12:01:11;101055.21;;;19.55;31.62
80414;BME280;69758;52.580;13.068;2024-02-16T12:03:35;101052.41;;;19.17;31.66
80414;BME280;69758;52.580;13.068;2024-02-16T12:06:00;101052.31;;;19.52;31.81
80414;BME280;69758;52.580;13.068;2024-02-16T12:08:32;101052.63;;;19.91;31.49
80414;BME280;69758;52.580;13.068;2024-02-16T12:10:51;101053.66;;;19.96;31.53
80414;BME280;69758;52.580;13.068;2024-02-16T12:13:17;101054.16;;;20.01;31.40
80414;BME280;69758;52.580;13.068;2024-02-16T12:15:41;101054.55;;;19.57;31.62
80414;BME280;69758;52.580;13.068;2024-02-16T12:18:06;101048.42;;;20.26;31.57
80414;BME280;69758;52.580;13.068;2024-02-16T12:20:32;101043.81;;;20.26;31.69
80414;BME280;69758;52.580;13.068;2024-02-16T12:22:57;101036.00;;;20.01;31.65
80414;BME280;69758;52.580;13.068;2024-02-16T12:25:22;101034.75;;;20.35;31.71
80414;BME280;69758;52.580;13.068;2024-02-16T12:27:47;101031.03;;;20.44;31.61
80414;BME280;69758;52.580;13.068;2024-02-16T12:30:13;101034.68;;;20.48;31.50
80414;BME280;69758;52.580;13.068;2024-02-16T12:32:38;101035.98;;;20.01;31.40